Etusivu
METAR-TAF:

METAR-TAF

Lentoasemat :

Vlissingen, Alankomaat

Leveyspiiri: 51-27N, Pituuspiiri: 3-36E, korkeus merenpinnasta: 10 m

Tämänhetkinen sää

Tämä raportti tehtiin 37 minuuttia sitten, kello 04.55 UTC
Tuuli 20 kn lännestä
Lämpötila 7°C
Kosteus 76%
Ilmanpaine 1023 hPa
Näkyvyys 10 km tai enemmän

METAR: EHFS 210455Z AUTO 26020KT 9999 NSC 07/03 Q1023

Aika: 06:32 (05:32 UTC)


TAF: puuttuu

Säähavainnot ja -ennusteet yli 4000 lentoasemalta (METAR- ja TAF-raportit).

Käytössä olevat sääasemat on merkitty karttaan keltaisilla ja punaisilla pisteillä.

Aseta hiiri pisteen päälle nähdäksesi sääaseman nimen.

Klikkaa sitten nähdäksesi säähavainnot ja -ennusteet.

Kartan vaihtaminen: klikkaa mustalla rastilla varustettuja vihreitä pisteitä, niin voit zoomata sisään; viivalla varustettua vihreää pistettä, niin voit zoomata ulos tai vihreitä nuolia, niin pääset viereisille kartoille.


METAR-TAF: